East Middlebury, VT (05740)

7:35 PM EDT on August 31, 2016 (GMT -0400)
EastView | | Change Station

Elev 390 ft 44.00 °N, 73.17 °W | Updated 3 minutes ago

Mostly Cloudy
Mostly Cloudy
70.3 °F
Feels Like 70.3 °F
N
4.0
Wind Variable Wind from South
Gusts 6.0 mph

Today
High -- | Low -- °F
--% Chance of Precip.
Yesterday
High -- | Low -- °F
Precip. -- in
Pressure 29.84 in
Visibility 10.0 miles
Clouds Scattered Clouds 4800 ft
Mostly Cloudy 5500 ft
Mostly Cloudy 10000 ft
Dew Point 65 °F
Humidity 83%
Rainfall 0.15 in
Snow Depth Not available.
6:15 AM 7:29 PM
Waning Crescent, 0% visible
METAR K6B0 312315Z AUTO 18004KT 10SM SCT048 BKN055 BKN100 22/18 A2984 RMK AO2 T02150175
Pressure 29.84 in
Visibility 10.0 miles
Clouds Scattered Clouds 4800 ft
Mostly Cloudy 5500 ft
Mostly Cloudy 10000 ft
Dew Point 65 °F
Humidity 83%
Rainfall 0.15 in
Snow Depth Not available.
6:15 AM 7:29 PM
Waning Crescent, 0% visible
METAR K6B0 312315Z AUTO 18004KT 10SM SCT048 BKN055 BKN100 22/18 A2984 RMK AO2 T02150175

10-Day Weather Forecast

Almanac

Astronomy

Aug. 31, 2016 Rise Set
Actual Time
Civil Twilight
Nautical Twilight
Astronomical Twilight
Moon
Length of Visible Light
Length of Day
Tomorrow will be .
, % of the Moon is Illuminated

Today's Extremes

State Highs State Lows

Community

WunderPhotos

Upload Photos

1,936,215 photos uploaded!

WunderBlog® & News

Nearby

Air Quality

  Air Quality AQ Index Pollutant
Not available.

Snow Depth

Station Depth Elevation

Earthquake Activity

City Distance Mag. Time & Date
Minimum magnitude displayed is 2.5.

Coastal Water Temperatures

Place Temperature

Stations

Nearby Weather Stations

Station Location Temp. Windchill Dew Point Humidity Wind Precip. Elev Updated Type
                   

Watches & Warnings

There are currently no watches in effect.